Normed Antwerpen — V2DG9 — position and weather

sailwx.info

Track history (hours):
 
Tides and Currents Weather Stations Pressure Air Temp Water Temp Dewpoint Dewpoint Depression Visibility Wind Speed Wind Dir Waves Ship Positions

Normed Antwerpen

Last reported at 2015-Apr-24 15:30 UTC. Time now 2015-Apr-28 05:19 UTC.
Position N 39°13' W 009°50'.

Length 130 m; draft 6.2 m.

Type: Ship. MMSI: 305210993.

Date/timePositionNaut miles runAvg speedWind from/ knotsBaromVisibWave heightAir tempDewpointWater temp
2015-Apr-24 15:30N 39°13' W 009°50'1213.1
2015-Apr-24 14:33N 39°01' W 009°51'1313.0
2015-Apr-24 13:33N 38°48' W 009°51'1312.7
2015-Apr-24 12:33N 38°36' W 009°49'1312.7
2015-Apr-24 11:32N 38°23' W 009°45'1212.5
2015-Apr-24 10:33N 38°11' W 009°41'1312.6
2015-Apr-24 09:33N 37°59' W 009°38'1312.9
2015-Apr-24 08:33N 37°46' W 009°34'1312.9
2015-Apr-24 07:33N 37°33' W 009°30'1913.1
2015-Apr-24 06:07N 37°15' W 009°25'912.7
2015-Apr-24 05:25N 37°07' W 009°22'2412.3
2015-Apr-24 03:30N 36°46' W 009°09'1512.7
2015-Apr-24 02:21N 36°41' W 008°52'1012.7
2015-Apr-24 01:33N 36°38' W 008°40'1312.6
2015-Apr-24 00:33N 36°34' W 008°25'1312.4
2015-Apr-23 23:31N 36°30' W 008°10'1212.6
2015-Apr-23 22:34N 36°26' W 007°55'1512.4
2015-Apr-23 21:23N 36°21' W 007°38'1012.3
2015-Apr-23 20:33N 36°18' W 007°26'1312.7
2015-Apr-23 19:33N 36°14' W 007°11'1312.6
2015-Apr-23 18:33N 36°10' W 006°57'1812.5
2015-Apr-23 17:10N 36°04' W 006°36'5812.5
2015-Apr-23 12:31N 36°01' W 005°24'22613.3
2015-Apr-22 19:33N 36°36' W 000°47'16712.6
2015-Apr-22 06:17N 36°60' E 002°40'52612.6
2015-Apr-20 12:24N 36°52' E 013°37'1112.6
2015-Apr-20 11:33N 36°49' E 013°50'1212.4
2015-Apr-20 10:33N 36°46' E 014°05'1312.9
2015-Apr-20 09:34N 36°42' E 014°20'1413.2
2015-Apr-20 08:32N 36°39' E 014°37'1413.3
2015-Apr-20 07:30N 36°35' E 014°53'1212.8
2015-Apr-20 06:32N 36°32' E 015°08'41312.2
2015-Apr-18 20:33N 37°04' E 023°43'2013.3
2015-Apr-18 19:03N 37°21' E 023°56'1312.8
2015-Apr-18 18:04N 37°32' E 024°05'2012.7
2015-Apr-18 16:30N 37°46' E 024°22'1413.6
2015-Apr-18 15:27N 37°57' E 024°34'12812.6
2015-Apr-18 05:14N 39°52' E 025°47'1213.0
2015-Apr-18 04:16N 39°60' E 025°59'  
2015-Apr-14 21:06N 40°26' E 029°06'3 4.9
2015-Apr-14 20:30N 40°28' E 029°03'13 9.0
2015-Apr-14 19:06N 40°29' E 028°47'712.4
2015-Apr-14 18:31N 40°36' E 028°50'1414.7
2015-Apr-14 17:33N 40°42' E 029°07'1312.8
2015-Apr-14 16:32N 40°45' E 029°24'  
Track history (hours):
 
Tides and Currents Weather Stations Pressure Air Temp Water Temp Dewpoint Dewpoint Depression Visibility Wind Speed Wind Dir Waves Ship Positions

Normed Antwerpen

Last reported at 2015-Apr-24 15:30 UTC. Time now 2015-Apr-28 05:19 UTC.
Position N 39°13' W 009°50'.

Length 130 m; draft 6.2 m.

Type: Ship. MMSI: 305210993.

Date/timePositionNaut miles runAvg speedWind from/ knotsBaromVisibWave heightAir tempDewpointWater temp
2015-Apr-24 15:30N 39°13' W 009°50'1213.1
2015-Apr-24 14:33N 39°01' W 009°51'1313.0
2015-Apr-24 13:33N 38°48' W 009°51'1312.7
2015-Apr-24 12:33N 38°36' W 009°49'1312.7
2015-Apr-24 11:32N 38°23' W 009°45'1212.5
2015-Apr-24 10:33N 38°11' W 009°41'1312.6
2015-Apr-24 09:33N 37°59' W 009°38'1312.9
2015-Apr-24 08:33N 37°46' W 009°34'1312.9
2015-Apr-24 07:33N 37°33' W 009°30'1913.1
2015-Apr-24 06:07N 37°15' W 009°25'912.7
2015-Apr-24 05:25N 37°07' W 009°22'2412.3
2015-Apr-24 03:30N 36°46' W 009°09'1512.7
2015-Apr-24 02:21N 36°41' W 008°52'1012.7
2015-Apr-24 01:33N 36°38' W 008°40'1312.6
2015-Apr-24 00:33N 36°34' W 008°25'1312.4
2015-Apr-23 23:31N 36°30' W 008°10'1212.6
2015-Apr-23 22:34N 36°26' W 007°55'1512.4
2015-Apr-23 21:23N 36°21' W 007°38'1012.3
2015-Apr-23 20:33N 36°18' W 007°26'1312.7
2015-Apr-23 19:33N 36°14' W 007°11'1312.6
2015-Apr-23 18:33N 36°10' W 006°57'1812.5
2015-Apr-23 17:10N 36°04' W 006°36'5812.5
2015-Apr-23 12:31N 36°01' W 005°24'22613.3
2015-Apr-22 19:33N 36°36' W 000°47'16712.6
2015-Apr-22 06:17N 36°60' E 002°40'52612.6
2015-Apr-20 12:24N 36°52' E 013°37'1112.6
2015-Apr-20 11:33N 36°49' E 013°50'1212.4
2015-Apr-20 10:33N 36°46' E 014°05'1312.9
2015-Apr-20 09:34N 36°42' E 014°20'1413.2
2015-Apr-20 08:32N 36°39' E 014°37'1413.3
2015-Apr-20 07:30N 36°35' E 014°53'1212.8
2015-Apr-20 06:32N 36°32' E 015°08'41312.2
2015-Apr-18 20:33N 37°04' E 023°43'2013.3
2015-Apr-18 19:03N 37°21' E 023°56'1312.8
2015-Apr-18 18:04N 37°32' E 024°05'2012.7
2015-Apr-18 16:30N 37°46' E 024°22'1413.6
2015-Apr-18 15:27N 37°57' E 024°34'12812.6
2015-Apr-18 05:14N 39°52' E 025°47'1213.0
2015-Apr-18 04:16N 39°60' E 025°59'  
2015-Apr-14 21:06N 40°26' E 029°06'3 4.9
2015-Apr-14 20:30N 40°28' E 029°03'13 9.0
2015-Apr-14 19:06N 40°29' E 028°47'712.4
2015-Apr-14 18:31N 40°36' E 028°50'1414.7
2015-Apr-14 17:33N 40°42' E 029°07'1312.8
2015-Apr-14 16:32N 40°45' E 029°24'  

Dump ship's entire track history